sensor_id;sensor_type;location;lat;lon;timestamp;temperature;humidity
57282;DHT22;43129;52.628;10.098;2023-12-29T00:02:13;10.80;99.90
57282;DHT22;43129;52.628;10.098;2023-12-29T00:04:39;10.90;99.90
57282;DHT22;43129;52.628;10.098;2023-12-29T00:07:05;10.80;99.90
57282;DHT22;43129;52.628;10.098;2023-12-29T00:09:31;10.80;99.90
57282;DHT22;43129;52.628;10.098;2023-12-29T00:12:03;10.80;99.90
57282;DHT22;43129;52.628;10.098;2023-12-29T00:14:37;10.80;99.90
57282;DHT22;43129;52.628;10.098;2023-12-29T00:17:03;10.80;99.90
57282;DHT22;43129;52.628;10.098;2023-12-29T00:19:29;10.80;99.90
57282;DHT22;43129;52.628;10.098;2023-12-29T00:21:54;10.80;99.90
57282;DHT22;43129;52.628;10.098;2023-12-29T00:24:20;10.80;99.90
57282;DHT22;43129;52.628;10.098;2023-12-29T00:26:48;10.80;99.90
57282;DHT22;43129;52.628;10.098;2023-12-29T00:29:14;10.80;99.90
57282;DHT22;43129;52.628;10.098;2023-12-29T00:31:41;10.80;99.90
57282;DHT22;43129;52.628;10.098;2023-12-29T00:34:07;10.80;99.90
57282;DHT22;43129;52.628;10.098;2023-12-29T00:36:32;10.80;99.90
57282;DHT22;43129;52.628;10.098;2023-12-29T00:38:58;10.80;99.90
57282;DHT22;43129;52.628;10.098;2023-12-29T00:41:23;10.80;99.90
57282;DHT22;43129;52.628;10.098;2023-12-29T00:43:52;10.80;99.90
57282;DHT22;43129;52.628;10.098;2023-12-29T00:46:17;10.80;99.90
57282;DHT22;43129;52.628;10.098;2023-12-29T00:48:46;10.80;99.90
57282;DHT22;43129;52.628;10.098;2023-12-29T00:51:14;10.80;99.90
57282;DHT22;43129;52.628;10.098;2023-12-29T00:53:41;10.80;99.90
57282;DHT22;43129;52.628;10.098;2023-12-29T00:56:14;10.80;99.90
57282;DHT22;43129;52.628;10.098;2023-12-29T00:58:42;10.80;99.90
57282;DHT22;43129;52.628;10.098;2023-12-29T01:01:08;10.80;99.90
57282;DHT22;43129;52.628;10.098;2023-12-29T01:03:34;10.70;99.90
57282;DHT22;43129;52.628;10.098;2023-12-29T01:06:00;10.80;99.90
57282;DHT22;43129;52.628;10.098;2023-12-29T01:08:25;10.80;99.90
57282;DHT22;43129;52.628;10.098;2023-12-29T01:10:51;10.70;99.90
57282;DHT22;43129;52.628;10.098;2023-12-29T01:13:21;10.80;99.90
57282;DHT22;43129;52.628;10.098;2023-12-29T01:15:47;10.80;99.90
57282;DHT22;43129;52.628;10.098;2023-12-29T01:18:16;10.80;99.90
57282;DHT22;43129;52.628;10.098;2023-12-29T01:20:41;10.80;99.90
57282;DHT22;43129;52.628;10.098;2023-12-29T01:23:11;10.80;99.90
57282;DHT22;43129;52.628;10.098;2023-12-29T01:25:39;10.80;99.90
57282;DHT22;43129;52.628;10.098;2023-12-29T01:28:07;10.70;99.90
57282;DHT22;43129;52.628;10.098;2023-12-29T01:30:33;10.80;99.90
57282;DHT22;43129;52.628;10.098;2023-12-29T01:32:58;10.80;99.90
57282;DHT22;43129;52.628;10.098;2023-12-29T01:35:24;10.80;99.90
57282;DHT22;43129;52.628;10.098;2023-12-29T01:37:52;10.80;99.90
57282;DHT22;43129;52.628;10.098;2023-12-29T01:40:21;10.80;99.90
57282;DHT22;43129;52.628;10.098;2023-12-29T01:42:46;10.70;99.90
57282;DHT22;43129;52.628;10.098;2023-12-29T01:45:24;10.60;99.90
57282;DHT22;43129;52.628;10.098;2023-12-29T01:47:53;10.40;99.90
57282;DHT22;43129;52.628;10.098;2023-12-29T01:50:21;10.50;99.90
57282;DHT22;43129;52.628;10.098;2023-12-29T01:52:48;10.50;99.90
57282;DHT22;43129;52.628;10.098;2023-12-29T01:55:18;10.50;99.90
57282;DHT22;43129;52.628;10.098;2023-12-29T01:57:44;10.50;99.90
57282;DHT22;43129;52.628;10.098;2023-12-29T02:00:13;10.50;99.90
57282;DHT22;43129;52.628;10.098;2023-12-29T02:02:39;10.40;99.90
57282;DHT22;43129;52.628;10.098;2023-12-29T02:05:05;10.40;99.90
57282;DHT22;43129;52.628;10.098;2023-12-29T02:07:32;10.40;99.90
57282;DHT22;43129;52.628;10.098;2023-12-29T02:09:58;10.40;99.90
57282;DHT22;43129;52.628;10.098;2023-12-29T02:12:25;10.40;99.90
57282;DHT22;43129;52.628;10.098;2023-12-29T02:14:50;10.40;99.90
57282;DHT22;43129;52.628;10.098;2023-12-29T02:19:52;10.20;99.90
57282;DHT22;43129;52.628;10.098;2023-12-29T02:22:20;9.80;99.90
57282;DHT22;43129;52.628;10.098;2023-12-29T02:24:47;9.60;99.90
57282;DHT22;43129;52.628;10.098;2023-12-29T02:27:34;9.40;99.90
57282;DHT22;43129;52.628;10.098;2023-12-29T02:30:15;9.30;99.90
57282;DHT22;43129;52.628;10.098;2023-12-29T02:32:43;9.20;99.90
57282;DHT22;43129;52.628;10.098;2023-12-29T02:35:13;9.00;99.90
57282;DHT22;43129;52.628;10.098;2023-12-29T02:37:40;9.00;99.90
57282;DHT22;43129;52.628;10.098;2023-12-29T02:40:12;9.00;99.90
57282;DHT22;43129;52.628;10.098;2023-12-29T02:42:45;8.90;99.90
57282;DHT22;43129;52.628;10.098;2023-12-29T02:45:14;8.90;99.90
57282;DHT22;43129;52.628;10.098;2023-12-29T02:47:42;8.90;99.90
57282;DHT22;43129;52.628;10.098;2023-12-29T02:50:08;8.90;99.90
57282;DHT22;43129;52.628;10.098;2023-12-29T02:52:34;8.80;99.90
57282;DHT22;43129;52.628;10.098;2023-12-29T02:55:03;9.00;99.90
57282;DHT22;43129;52.628;10.098;2023-12-29T02:57:29;9.00;99.90
57282;DHT22;43129;52.628;10.098;2023-12-29T02:59:55;9.10;99.90
57282;DHT22;43129;52.628;10.098;2023-12-29T03:02:21;9.20;99.90
57282;DHT22;43129;52.628;10.098;2023-12-29T03:04:47;9.20;99.90
57282;DHT22;43129;52.628;10.098;2023-12-29T03:07:12;9.20;99.90
57282;DHT22;43129;52.628;10.098;2023-12-29T03:09:38;9.30;99.90
57282;DHT22;43129;52.628;10.098;2023-12-29T03:12:04;9.40;99.90
57282;DHT22;43129;52.628;10.098;2023-12-29T03:14:30;9.30;99.90
57282;DHT22;43129;52.628;10.098;2023-12-29T03:16:55;9.40;99.90
57282;DHT22;43129;52.628;10.098;2023-12-29T03:19:21;9.40;99.90
57282;DHT22;43129;52.628;10.098;2023-12-29T03:21:51;9.50;99.90
57282;DHT22;43129;52.628;10.098;2023-12-29T03:24:19;9.70;99.90
57282;DHT22;43129;52.628;10.098;2023-12-29T03:26:47;9.60;99.90
57282;DHT22;43129;52.628;10.098;2023-12-29T03:29:12;9.40;99.90
57282;DHT22;43129;52.628;10.098;2023-12-29T03:31:40;9.20;99.90
57282;DHT22;43129;52.628;10.098;2023-12-29T03:34:08;9.20;99.90
57282;DHT22;43129;52.628;10.098;2023-12-29T03:36:34;9.20;99.90
57282;DHT22;43129;52.628;10.098;2023-12-29T03:39:04;9.20;99.90
57282;DHT22;43129;52.628;10.098;2023-12-29T03:41:30;9.20;99.90
57282;DHT22;43129;52.628;10.098;2023-12-29T03:43:56;9.20;99.90
57282;DHT22;43129;52.628;10.098;2023-12-29T03:46:25;9.30;99.90
57282;DHT22;43129;52.628;10.098;2023-12-29T03:48:51;9.40;99.90
57282;DHT22;43129;52.628;10.098;2023-12-29T03:51:17;9.60;99.90
57282;DHT22;43129;52.628;10.098;2023-12-29T03:53:46;9.60;99.90
57282;DHT22;43129;52.628;10.098;2023-12-29T03:56:16;9.70;99.90
57282;DHT22;43129;52.628;10.098;2023-12-29T03:58:43;9.70;99.90
57282;DHT22;43129;52.628;10.098;2023-12-29T04:01:10;9.80;99.90
57282;DHT22;43129;52.628;10.098;2023-12-29T04:03:37;9.80;99.90
57282;DHT22;43129;52.628;10.098;2023-12-29T04:06:08;9.80;99.90
57282;DHT22;43129;52.628;10.098;2023-12-29T04:08:37;9.80;99.90
57282;DHT22;43129;52.628;10.098;2023-12-29T04:11:11;9.90;99.90
57282;DHT22;43129;52.628;10.098;2023-12-29T04:13:39;9.90;99.90
57282;DHT22;43129;52.628;10.098;2023-12-29T04:16:05;9.90;99.90
57282;DHT22;43129;52.628;10.098;2023-12-29T04:18:31;10.00;99.90
57282;DHT22;43129;52.628;10.098;2023-12-29T04:20:56;10.00;99.90
57282;DHT22;43129;52.628;10.098;2023-12-29T04:23:22;10.00;99.90
57282;DHT22;43129;52.628;10.098;2023-12-29T04:25:47;10.00;99.90
57282;DHT22;43129;52.628;10.098;2023-12-29T04:28:13;9.90;99.90
57282;DHT22;43129;52.628;10.098;2023-12-29T04:30:39;10.00;99.90
57282;DHT22;43129;52.628;10.098;2023-12-29T04:33:04;10.00;99.90
57282;DHT22;43129;52.628;10.098;2023-12-29T04:35:30;10.10;99.90
57282;DHT22;43129;52.628;10.098;2023-12-29T04:37:56;10.20;99.90
57282;DHT22;43129;52.628;10.098;2023-12-29T04:40:23;10.20;99.90
57282;DHT22;43129;52.628;10.098;2023-12-29T04:42:49;10.00;99.90
57282;DHT22;43129;52.628;10.098;2023-12-29T04:45:15;10.00;99.90
57282;DHT22;43129;52.628;10.098;2023-12-29T04:47:43;10.00;99.90
57282;DHT22;43129;52.628;10.098;2023-12-29T04:50:08;10.00;99.90
57282;DHT22;43129;52.628;10.098;2023-12-29T04:52:36;10.10;99.90
57282;DHT22;43129;52.628;10.098;2023-12-29T04:55:05;9.70;99.90
57282;DHT22;43129;52.628;10.098;2023-12-29T04:57:31;9.40;99.90
57282;DHT22;43129;52.628;10.098;2023-12-29T04:59:59;9.30;99.90
57282;DHT22;43129;52.628;10.098;2023-12-29T05:02:24;9.30;99.90
57282;DHT22;43129;52.628;10.098;2023-12-29T05:04:52;9.10;99.90
57282;DHT22;43129;52.628;10.098;2023-12-29T05:07:18;9.00;99.90
57282;DHT22;43129;52.628;10.098;2023-12-29T05:09:44;9.00;99.90
57282;DHT22;43129;52.628;10.098;2023-12-29T05:12:09;9.10;99.90
57282;DHT22;43129;52.628;10.098;2023-12-29T05:14:37;9.00;99.90
57282;DHT22;43129;52.628;10.098;2023-12-29T05:17:03;9.00;99.90
57282;DHT22;43129;52.628;10.098;2023-12-29T05:19:31;9.00;99.90
57282;DHT22;43129;52.628;10.098;2023-12-29T05:21:56;9.00;99.90
57282;DHT22;43129;52.628;10.098;2023-12-29T05:24:22;9.10;99.90
57282;DHT22;43129;52.628;10.098;2023-12-29T05:26:48;9.10;99.90
57282;DHT22;43129;52.628;10.098;2023-12-29T05:29:13;9.10;99.90
57282;DHT22;43129;52.628;10.098;2023-12-29T05:31:39;9.20;99.90
57282;DHT22;43129;52.628;10.098;2023-12-29T05:34:07;9.20;99.90
57282;DHT22;43129;52.628;10.098;2023-12-29T05:36:36;9.30;99.90
57282;DHT22;43129;52.628;10.098;2023-12-29T05:39:02;9.30;99.90
57282;DHT22;43129;52.628;10.098;2023-12-29T05:41:29;9.40;99.90
57282;DHT22;43129;52.628;10.098;2023-12-29T05:43:54;9.50;99.90
57282;DHT22;43129;52.628;10.098;2023-12-29T05:46:20;9.50;99.90
57282;DHT22;43129;52.628;10.098;2023-12-29T05:48:46;9.50;99.90
57282;DHT22;43129;52.628;10.098;2023-12-29T05:51:15;9.60;99.90
57282;DHT22;43129;52.628;10.098;2023-12-29T05:53:43;9.40;99.90
57282;DHT22;43129;52.628;10.098;2023-12-29T05:56:12;9.30;99.90
57282;DHT22;43129;52.628;10.098;2023-12-29T05:58:38;9.20;99.90
57282;DHT22;43129;52.628;10.098;2023-12-29T06:01:03;9.10;99.90
57282;DHT22;43129;52.628;10.098;2023-12-29T06:03:29;9.10;99.90
57282;DHT22;43129;52.628;10.098;2023-12-29T06:05:54;9.00;99.90
57282;DHT22;43129;52.628;10.098;2023-12-29T06:08:20;9.00;99.90
57282;DHT22;43129;52.628;10.098;2023-12-29T06:10:46;9.00;99.90
57282;DHT22;43129;52.628;10.098;2023-12-29T06:13:11;9.00;99.90
57282;DHT22;43129;52.628;10.098;2023-12-29T06:15:40;9.00;99.90
57282;DHT22;43129;52.628;10.098;2023-12-29T06:18:06;9.00;99.90
57282;DHT22;43129;52.628;10.098;2023-12-29T06:20:31;8.90;99.90
57282;DHT22;43129;52.628;10.098;2023-12-29T06:22:57;9.00;99.90
57282;DHT22;43129;52.628;10.098;2023-12-29T06:25:22;9.00;99.90
57282;DHT22;43129;52.628;10.098;2023-12-29T06:27:51;8.90;99.90
57282;DHT22;43129;52.628;10.098;2023-12-29T06:30:18;9.00;99.90
57282;DHT22;43129;52.628;10.098;2023-12-29T06:32:46;9.00;99.90
57282;DHT22;43129;52.628;10.098;2023-12-29T06:35:14;9.00;99.90
57282;DHT22;43129;52.628;10.098;2023-12-29T06:37:40;9.00;99.90
57282;DHT22;43129;52.628;10.098;2023-12-29T06:40:07;9.00;99.90
57282;DHT22;43129;52.628;10.098;2023-12-29T06:42:35;9.20;99.90
57282;DHT22;43129;52.628;10.098;2023-12-29T06:45:00;9.30;99.90
57282;DHT22;43129;52.628;10.098;2023-12-29T06:47:27;9.30;99.90
57282;DHT22;43129;52.628;10.098;2023-12-29T06:49:52;9.30;99.90
57282;DHT22;43129;52.628;10.098;2023-12-29T06:52:18;9.40;99.90
57282;DHT22;43129;52.628;10.098;2023-12-29T06:54:44;9.40;99.90
57282;DHT22;43129;52.628;10.098;2023-12-29T06:57:09;9.50;99.90
57282;DHT22;43129;52.628;10.098;2023-12-29T06:59:35;9.50;99.90
57282;DHT22;43129;52.628;10.098;2023-12-29T07:02:02;9.60;99.90
57282;DHT22;43129;52.628;10.098;2023-12-29T07:04:28;9.60;99.90
57282;DHT22;43129;52.628;10.098;2023-12-29T07:06:53;9.70;99.90
57282;DHT22;43129;52.628;10.098;2023-12-29T07:09:19;9.70;99.90
57282;DHT22;43129;52.628;10.098;2023-12-29T07:11:48;9.70;99.90
57282;DHT22;43129;52.628;10.098;2023-12-29T07:14:15;9.70;99.90
57282;DHT22;43129;52.628;10.098;2023-12-29T07:16:44;9.70;99.90
57282;DHT22;43129;52.628;10.098;2023-12-29T07:19:09;9.70;99.90
57282;DHT22;43129;52.628;10.098;2023-12-29T07:21:35;9.70;99.90
57282;DHT22;43129;52.628;10.098;2023-12-29T07:24:01;9.70;99.90
57282;DHT22;43129;52.628;10.098;2023-12-29T07:26:29;9.70;99.90
57282;DHT22;43129;52.628;10.098;2023-12-29T07:28:57;9.60;99.90
57282;DHT22;43129;52.628;10.098;2023-12-29T07:31:22;9.50;99.90
57282;DHT22;43129;52.628;10.098;2023-12-29T07:33:49;9.20;99.90
57282;DHT22;43129;52.628;10.098;2023-12-29T07:36:15;9.00;99.90
57282;DHT22;43129;52.628;10.098;2023-12-29T07:38:40;8.80;99.90
57282;DHT22;43129;52.628;10.098;2023-12-29T07:41:07;8.60;99.90
57282;DHT22;43129;52.628;10.098;2023-12-29T07:43:34;8.50;99.90
57282;DHT22;43129;52.628;10.098;2023-12-29T07:46:01;8.40;99.90
57282;DHT22;43129;52.628;10.098;2023-12-29T07:48:27;8.40;99.90
57282;DHT22;43129;52.628;10.098;2023-12-29T07:50:53;8.30;99.90
57282;DHT22;43129;52.628;10.098;2023-12-29T07:53:21;8.20;99.90
57282;DHT22;43129;52.628;10.098;2023-12-29T07:55:49;8.20;99.90
57282;DHT22;43129;52.628;10.098;2023-12-29T07:58:15;8.20;99.90
57282;DHT22;43129;52.628;10.098;2023-12-29T08:00:41;8.10;99.90
57282;DHT22;43129;52.628;10.098;2023-12-29T08:03:06;8.20;99.90
57282;DHT22;43129;52.628;10.098;2023-12-29T08:05:32;8.10;99.90
57282;DHT22;43129;52.628;10.098;2023-12-29T08:07:59;8.10;99.90
57282;DHT22;43129;52.628;10.098;2023-12-29T08:10:27;8.10;99.90
57282;DHT22;43129;52.628;10.098;2023-12-29T08:12:55;8.10;99.90
57282;DHT22;43129;52.628;10.098;2023-12-29T08:15:23;8.20;99.90
57282;DHT22;43129;52.628;10.098;2023-12-29T08:17:51;8.10;99.90
57282;DHT22;43129;52.628;10.098;2023-12-29T08:20:17;8.10;99.90
57282;DHT22;43129;52.628;10.098;2023-12-29T08:22:42;8.20;99.90
57282;DHT22;43129;52.628;10.098;2023-12-29T08:25:10;8.10;99.90
57282;DHT22;43129;52.628;10.098;2023-12-29T08:27:37;8.20;99.90
57282;DHT22;43129;52.628;10.098;2023-12-29T08:30:02;8.20;99.90
57282;DHT22;43129;52.628;10.098;2023-12-29T08:32:28;8.20;99.90
57282;DHT22;43129;52.628;10.098;2023-12-29T08:34:54;8.20;99.90
57282;DHT22;43129;52.628;10.098;2023-12-29T08:37:19;8.30;99.90
57282;DHT22;43129;52.628;10.098;2023-12-29T08:39:48;8.30;99.90
57282;DHT22;43129;52.628;10.098;2023-12-29T08:42:14;8.30;99.90
57282;DHT22;43129;52.628;10.098;2023-12-29T08:44:40;8.30;99.90
57282;DHT22;43129;52.628;10.098;2023-12-29T08:47:08;8.40;99.90
57282;DHT22;43129;52.628;10.098;2023-12-29T08:49:37;8.50;99.90
57282;DHT22;43129;52.628;10.098;2023-12-29T08:52:05;8.50;99.90
57282;DHT22;43129;52.628;10.098;2023-12-29T08:54:31;8.60;99.90
57282;DHT22;43129;52.628;10.098;2023-12-29T08:56:56;8.70;99.90
57282;DHT22;43129;52.628;10.098;2023-12-29T08:59:22;8.80;99.90
57282;DHT22;43129;52.628;10.098;2023-12-29T09:01:48;8.80;99.90
57282;DHT22;43129;52.628;10.098;2023-12-29T09:04:14;8.90;99.90
57282;DHT22;43129;52.628;10.098;2023-12-29T09:06:40;8.90;99.90
57282;DHT22;43129;52.628;10.098;2023-12-29T09:09:05;8.90;99.90
57282;DHT22;43129;52.628;10.098;2023-12-29T09:11:31;9.00;99.90
57282;DHT22;43129;52.628;10.098;2023-12-29T09:13:56;9.00;99.90
57282;DHT22;43129;52.628;10.098;2023-12-29T09:16:22;9.00;99.90
57282;DHT22;43129;52.628;10.098;2023-12-29T09:18:48;9.00;99.90
57282;DHT22;43129;52.628;10.098;2023-12-29T09:21:16;9.20;99.90
57282;DHT22;43129;52.628;10.098;2023-12-29T09:23:44;9.20;99.90
57282;DHT22;43129;52.628;10.098;2023-12-29T09:26:09;9.30;99.90
57282;DHT22;43129;52.628;10.098;2023-12-29T09:28:35;9.30;99.90
57282;DHT22;43129;52.628;10.098;2023-12-29T09:31:00;9.30;99.90
57282;DHT22;43129;52.628;10.098;2023-12-29T09:33:27;9.20;99.90
57282;DHT22;43129;52.628;10.098;2023-12-29T09:35:53;9.40;99.90
57282;DHT22;43129;52.628;10.098;2023-12-29T09:38:21;9.70;99.90
57282;DHT22;43129;52.628;10.098;2023-12-29T09:40:47;9.90;99.90
57282;DHT22;43129;52.628;10.098;2023-12-29T09:43:18;9.90;99.90
57282;DHT22;43129;52.628;10.098;2023-12-29T09:45:47;10.00;99.90
57282;DHT22;43129;52.628;10.098;2023-12-29T09:48:16;10.10;99.90
57282;DHT22;43129;52.628;10.098;2023-12-29T09:50:46;10.10;99.90
57282;DHT22;43129;52.628;10.098;2023-12-29T09:53:12;10.10;99.90
57282;DHT22;43129;52.628;10.098;2023-12-29T09:55:41;10.10;99.90
57282;DHT22;43129;52.628;10.098;2023-12-29T09:58:08;10.10;99.90
57282;DHT22;43129;52.628;10.098;2023-12-29T10:00:38;10.10;99.90
57282;DHT22;43129;52.628;10.098;2023-12-29T10:03:09;10.20;99.90
57282;DHT22;43129;52.628;10.098;2023-12-29T10:05:35;10.20;99.90
57282;DHT22;43129;52.628;10.098;2023-12-29T10:08:02;10.20;99.90
57282;DHT22;43129;52.628;10.098;2023-12-29T10:10:30;10.20;99.90
57282;DHT22;43129;52.628;10.098;2023-12-29T10:12:57;10.20;99.90
57282;DHT22;43129;52.628;10.098;2023-12-29T10:16:08;10.30;99.90
57282;DHT22;43129;52.628;10.098;2023-12-29T10:21:45;10.30;99.90
57282;DHT22;43129;52.628;10.098;2023-12-29T10:24:19;10.20;99.90
57282;DHT22;43129;52.628;10.098;2023-12-29T10:26:45;10.30;99.90
57282;DHT22;43129;52.628;10.098;2023-12-29T10:29:12;10.30;99.90
57282;DHT22;43129;52.628;10.098;2023-12-29T10:31:40;10.20;99.90
57282;DHT22;43129;52.628;10.098;2023-12-29T10:34:25;10.20;99.90
57282;DHT22;43129;52.628;10.098;2023-12-29T10:37:03;10.20;99.90
57282;DHT22;43129;52.628;10.098;2023-12-29T10:39:37;10.00;99.90
57282;DHT22;43129;52.628;10.098;2023-12-29T10:42:07;9.90;99.90
57282;DHT22;43129;52.628;10.098;2023-12-29T10:44:36;9.80;99.90
57282;DHT22;43129;52.628;10.098;2023-12-29T10:47:12;9.60;99.90
57282;DHT22;43129;52.628;10.098;2023-12-29T10:49:41;9.50;99.90
57282;DHT22;43129;52.628;10.098;2023-12-29T10:52:14;9.50;99.90
57282;DHT22;43129;52.628;10.098;2023-12-29T10:54:40;9.40;99.90
57282;DHT22;43129;52.628;10.098;2023-12-29T10:57:08;9.40;99.90
57282;DHT22;43129;52.628;10.098;2023-12-29T10:59:35;9.30;99.90
57282;DHT22;43129;52.628;10.098;2023-12-29T11:02:03;9.20;99.90
57282;DHT22;43129;52.628;10.098;2023-12-29T11:04:29;9.10;99.90
57282;DHT22;43129;52.628;10.098;2023-12-29T11:06:55;9.10;99.90
57282;DHT22;43129;52.628;10.098;2023-12-29T11:09:31;8.90;99.90
57282;DHT22;43129;52.628;10.098;2023-12-29T11:12:01;8.70;99.90
57282;DHT22;43129;52.628;10.098;2023-12-29T11:14:31;8.70;99.90
57282;DHT22;43129;52.628;10.098;2023-12-29T11:16:59;8.70;99.90
57282;DHT22;43129;52.628;10.098;2023-12-29T11:19:28;8.70;99.90
57282;DHT22;43129;52.628;10.098;2023-12-29T11:21:57;8.70;99.90
57282;DHT22;43129;52.628;10.098;2023-12-29T11:24:23;8.60;99.90
57282;DHT22;43129;52.628;10.098;2023-12-29T11:26:49;8.50;99.90
57282;DHT22;43129;52.628;10.098;2023-12-29T11:29:18;8.50;99.90
57282;DHT22;43129;52.628;10.098;2023-12-29T11:31:45;8.40;99.90
57282;DHT22;43129;52.628;10.098;2023-12-29T11:34:29;8.40;99.90
57282;DHT22;43129;52.628;10.098;2023-12-29T11:37:15;8.30;99.90
57282;DHT22;43129;52.628;10.098;2023-12-29T11:39:52;8.30;99.90
57282;DHT22;43129;52.628;10.098;2023-12-29T11:42:31;8.30;99.90
57282;DHT22;43129;52.628;10.098;2023-12-29T11:44:57;8.30;99.90
57282;DHT22;43129;52.628;10.098;2023-12-29T11:47:43;8.30;99.90
57282;DHT22;43129;52.628;10.098;2023-12-29T11:50:09;8.20;99.90
57282;DHT22;43129;52.628;10.098;2023-12-29T11:52:37;8.20;99.90
57282;DHT22;43129;52.628;10.098;2023-12-29T11:55:12;8.20;99.90
57282;DHT22;43129;52.628;10.098;2023-12-29T11:57:39;8.20;99.90
57282;DHT22;43129;52.628;10.098;2023-12-29T12:00:08;8.20;99.90
57282;DHT22;43129;52.628;10.098;2023-12-29T12:02:34;8.30;99.90
57282;DHT22;43129;52.628;10.098;2023-12-29T12:05:00;8.30;99.90
57282;DHT22;43129;52.628;10.098;2023-12-29T12:10:31;8.30;99.90
57282;DHT22;43129;52.628;10.098;2023-12-29T12:12:58;8.30;99.90
57282;DHT22;43129;52.628;10.098;2023-12-29T12:17:54;8.40;99.90
57282;DHT22;43129;52.628;10.098;2023-12-29T12:20:22;8.60;99.90
57282;DHT22;43129;52.628;10.098;2023-12-29T12:23:03;8.70;99.90
57282;DHT22;43129;52.628;10.098;2023-12-29T12:25:32;8.60;99.90
57282;DHT22;43129;52.628;10.098;2023-12-29T12:28:06;8.70;99.90
57282;DHT22;43129;52.628;10.098;2023-12-29T12:30:33;8.70;99.90
57282;DHT22;43129;52.628;10.098;2023-12-29T12:33:03;8.70;99.90
57282;DHT22;43129;52.628;10.098;2023-12-29T12:35:30;8.70;99.90
57282;DHT22;43129;52.628;10.098;2023-12-29T12:40:39;8.70;99.90
57282;DHT22;43129;52.628;10.098;2023-12-29T12:43:05;8.80;99.90
57282;DHT22;43129;52.628;10.098;2023-12-29T12:45:59;8.90;99.90
57282;DHT22;43129;52.628;10.098;2023-12-29T12:48:35;8.90;99.90
57282;DHT22;43129;52.628;10.098;2023-12-29T12:51:02;8.90;99.90
57282;DHT22;43129;52.628;10.098;2023-12-29T12:53:28;9.00;99.90
57282;DHT22;43129;52.628;10.098;2023-12-29T12:55:55;9.00;99.90
57282;DHT22;43129;52.628;10.098;2023-12-29T12:58:26;9.20;99.90
57282;DHT22;43129;52.628;10.098;2023-12-29T13:00:57;9.20;99.90
57282;DHT22;43129;52.628;10.098;2023-12-29T13:03:28;9.30;99.90
57282;DHT22;43129;52.628;10.098;2023-12-29T13:05:56;9.40;99.90
57282;DHT22;43129;52.628;10.098;2023-12-29T13:08:27;9.60;99.90
57282;DHT22;43129;52.628;10.098;2023-12-29T13:10:56;9.60;99.90
57282;DHT22;43129;52.628;10.098;2023-12-29T13:13:21;9.70;99.90
57282;DHT22;43129;52.628;10.098;2023-12-29T13:15:53;9.80;99.90
57282;DHT22;43129;52.628;10.098;2023-12-29T13:18:29;9.90;99.90
57282;DHT22;43129;52.628;10.098;2023-12-29T13:20:57;9.90;99.90
57282;DHT22;43129;52.628;10.098;2023-12-29T13:23:26;10.00;99.90
57282;DHT22;43129;52.628;10.098;2023-12-29T13:25:57;10.00;99.90
57282;DHT22;43129;52.628;10.098;2023-12-29T13:28:23;10.10;99.90
57282;DHT22;43129;52.628;10.098;2023-12-29T13:30:51;10.10;99.90
57282;DHT22;43129;52.628;10.098;2023-12-29T13:36:15;10.40;99.90
57282;DHT22;43129;52.628;10.098;2023-12-29T13:39:07;10.20;99.90
57282;DHT22;43129;52.628;10.098;2023-12-29T13:41:37;10.10;99.90
57282;DHT22;43129;52.628;10.098;2023-12-29T13:44:04;10.00;99.90
57282;DHT22;43129;52.628;10.098;2023-12-29T13:46:30;9.80;99.90
57282;DHT22;43129;52.628;10.098;2023-12-29T13:48:59;9.70;99.90
57282;DHT22;43129;52.628;10.098;2023-12-29T13:51:27;9.70;99.90
57282;DHT22;43129;52.628;10.098;2023-12-29T13:54:00;9.90;99.90
57282;DHT22;43129;52.628;10.098;2023-12-29T13:56:28;10.00;99.90
57282;DHT22;43129;52.628;10.098;2023-12-29T13:58:54;10.00;99.90
57282;DHT22;43129;52.628;10.098;2023-12-29T14:01:20;10.00;99.90
57282;DHT22;43129;52.628;10.098;2023-12-29T14:06:21;9.90;99.90
57282;DHT22;43129;52.628;10.098;2023-12-29T14:08:47;9.70;99.90
57282;DHT22;43129;52.628;10.098;2023-12-29T14:11:16;9.70;99.90
57282;DHT22;43129;52.628;10.098;2023-12-29T14:13:45;9.70;99.90
57282;DHT22;43129;52.628;10.098;2023-12-29T14:16:11;9.50;99.90
57282;DHT22;43129;52.628;10.098;2023-12-29T14:18:48;9.50;99.90
57282;DHT22;43129;52.628;10.098;2023-12-29T14:21:29;9.40;99.90
57282;DHT22;43129;52.628;10.098;2023-12-29T14:26:32;9.30;99.90
57282;DHT22;43129;52.628;10.098;2023-12-29T14:29:08;9.20;99.90
57282;DHT22;43129;52.628;10.098;2023-12-29T14:34:04;9.10;99.90
57282;DHT22;43129;52.628;10.098;2023-12-29T14:36:34;9.10;99.90
57282;DHT22;43129;52.628;10.098;2023-12-29T14:39:00;9.00;99.90
57282;DHT22;43129;52.628;10.098;2023-12-29T14:41:29;8.90;99.90
57282;DHT22;43129;52.628;10.098;2023-12-29T14:44:00;8.80;99.90
57282;DHT22;43129;52.628;10.098;2023-12-29T14:46:26;8.60;99.90
57282;DHT22;43129;52.628;10.098;2023-12-29T14:48:57;8.50;99.90
57282;DHT22;43129;52.628;10.098;2023-12-29T14:51:23;8.40;99.90
57282;DHT22;43129;52.628;10.098;2023-12-29T14:53:49;8.30;99.90
57282;DHT22;43129;52.628;10.098;2023-12-29T14:56:16;8.30;99.90
57282;DHT22;43129;52.628;10.098;2023-12-29T14:58:47;8.30;99.90
57282;DHT22;43129;52.628;10.098;2023-12-29T15:01:19;8.20;99.90
57282;DHT22;43129;52.628;10.098;2023-12-29T15:03:44;8.30;99.90
57282;DHT22;43129;52.628;10.098;2023-12-29T15:06:10;8.20;99.90
57282;DHT22;43129;52.628;10.098;2023-12-29T15:08:36;8.20;99.90
57282;DHT22;43129;52.628;10.098;2023-12-29T15:11:03;8.20;99.90
57282;DHT22;43129;52.628;10.098;2023-12-29T15:13:32;8.20;99.90
57282;DHT22;43129;52.628;10.098;2023-12-29T15:16:02;8.20;99.90
57282;DHT22;43129;52.628;10.098;2023-12-29T15:18:29;8.10;99.90
57282;DHT22;43129;52.628;10.098;2023-12-29T15:20:56;8.20;99.90
57282;DHT22;43129;52.628;10.098;2023-12-29T15:23:25;8.10;99.90
57282;DHT22;43129;52.628;10.098;2023-12-29T15:25:50;8.10;99.90
57282;DHT22;43129;52.628;10.098;2023-12-29T15:28:16;8.10;99.90
57282;DHT22;43129;52.628;10.098;2023-12-29T15:30:47;8.10;99.90
57282;DHT22;43129;52.628;10.098;2023-12-29T15:33:13;8.10;99.90
57282;DHT22;43129;52.628;10.098;2023-12-29T15:35:39;8.10;99.90
57282;DHT22;43129;52.628;10.098;2023-12-29T15:38:06;8.10;99.90
57282;DHT22;43129;52.628;10.098;2023-12-29T15:40:34;8.10;99.90
57282;DHT22;43129;52.628;10.098;2023-12-29T15:43:02;8.10;99.90
57282;DHT22;43129;52.628;10.098;2023-12-29T15:45:30;8.20;99.90
57282;DHT22;43129;52.628;10.098;2023-12-29T15:47:55;8.30;99.90
57282;DHT22;43129;52.628;10.098;2023-12-29T15:50:24;8.40;99.90
57282;DHT22;43129;52.628;10.098;2023-12-29T15:52:50;8.40;99.90
57282;DHT22;43129;52.628;10.098;2023-12-29T15:55:15;8.40;99.90
57282;DHT22;43129;52.628;10.098;2023-12-29T15:57:41;8.40;99.90